createdAt,value
2022-09-15T02:42:07.291Z,27.00
2022-09-15T02:44:34.235Z,50.30
2022-09-15T02:47:01.954Z,25.00
2022-09-15T02:49:28.410Z,19.10
2022-09-15T02:51:54.928Z,17.93
2022-09-15T02:54:21.513Z,19.10
2022-09-15T02:56:48.069Z,25.03
2022-09-15T02:59:14.808Z,20.43
2022-09-15T03:01:41.321Z,19.50
2022-09-15T03:04:08.233Z,22.00
2022-09-15T03:06:34.770Z,22.07
2022-09-15T03:09:05.495Z,28.23
2022-09-15T03:11:33.077Z,22.80
2022-09-15T03:14:02.543Z,25.80
2022-09-15T03:16:31.349Z,26.30
2022-09-15T03:19:02.252Z,23.57
2022-09-15T03:21:29.671Z,22.17
2022-09-15T03:23:57.681Z,20.40
2022-09-15T03:26:24.233Z,21.70
2022-09-15T03:28:50.627Z,21.90
2022-09-15T03:31:17.285Z,19.77
2022-09-15T03:33:43.752Z,24.47
2022-09-15T03:36:10.163Z,24.70
2022-09-15T03:38:36.609Z,59.67
2022-09-15T03:41:07.640Z,22.03
2022-09-15T03:43:35.404Z,20.27
2022-09-15T03:46:02.322Z,20.23
2022-09-15T03:48:31.303Z,20.00
2022-09-15T03:50:57.836Z,17.70
2022-09-15T03:53:24.511Z,19.33
2022-09-15T03:55:51.681Z,18.70
2022-09-15T03:58:18.953Z,18.00
2022-09-15T04:00:46.148Z,24.20
2022-09-15T04:03:13.310Z,29.53
2022-09-15T04:05:39.819Z,37.67
2022-09-15T04:08:06.251Z,39.57
2022-09-15T04:10:32.856Z,49.77
2022-09-15T04:12:59.257Z,33.50
2022-09-15T04:15:25.726Z,32.80
2022-09-15T04:17:52.109Z,32.77
2022-09-15T04:20:18.892Z,30.17
2022-09-15T04:22:45.364Z,39.73
2022-09-15T04:25:12.025Z,51.30
2022-09-15T04:27:38.678Z,40.17
2022-09-15T04:30:07.397Z,43.23
2022-09-15T04:32:35.553Z,34.43
2022-09-15T04:35:02.852Z,32.30
2022-09-15T04:37:30.195Z,30.90
2022-09-15T04:39:56.862Z,39.47
2022-09-15T04:42:23.964Z,28.67
2022-09-15T04:44:50.659Z,30.90
2022-09-15T04:47:17.547Z,31.57
2022-09-15T04:49:44.039Z,26.20
2022-09-15T04:52:10.665Z,25.80
2022-09-15T04:54:37.354Z,25.30
2022-09-15T04:57:03.971Z,27.80
2022-09-15T04:59:30.385Z,25.60
2022-09-15T05:01:56.910Z,29.50
2022-09-15T05:04:23.378Z,24.20
2022-09-15T05:06:49.811Z,25.40
2022-09-15T05:09:16.243Z,24.57
2022-09-15T05:11:42.670Z,28.00
2022-09-15T05:14:10.439Z,26.87
2022-09-15T05:16:37.315Z,26.70
2022-09-15T05:19:04.709Z,24.80
2022-09-15T05:21:32.091Z,23.97
2022-09-15T05:23:58.546Z,28.53
2022-09-15T05:26:28.072Z,26.10
2022-09-15T05:28:56.316Z,24.23
2022-09-15T05:31:28.620Z,32.87
2022-09-15T05:33:55.282Z,28.27
2022-09-15T05:36:25.457Z,25.00
2022-09-15T05:38:58.907Z,26.50
2022-09-15T05:41:27.131Z,25.13
2022-09-15T05:43:56.862Z,28.20
2022-09-15T05:46:26.029Z,32.67
2022-09-15T05:48:54.229Z,27.20
2022-09-15T05:51:22.021Z,37.10
2022-09-15T05:53:48.640Z,28.10
2022-09-15T05:56:17.213Z,36.60
2022-09-15T05:58:45.827Z,34.03
2022-09-15T06:01:24.273Z,28.57
2022-09-15T06:03:51.735Z,38.77
2022-09-15T06:06:18.987Z,34.10
2022-09-15T06:08:51.717Z,33.07
2022-09-15T06:11:20.734Z,33.73
2022-09-15T06:13:47.814Z,32.27
2022-09-15T06:16:19.229Z,36.73
2022-09-15T06:18:47.380Z,34.83
2022-09-15T06:21:19.331Z,31.93
2022-09-15T06:23:50.532Z,39.60
2022-09-15T06:26:18.918Z,43.60
2022-09-15T06:28:53.889Z,47.33
2022-09-15T06:31:21.016Z,42.77
2022-09-15T06:33:54.096Z,44.30
2022-09-15T06:36:23.239Z,49.00
2022-09-15T06:38:50.271Z,45.37
2022-09-15T06:41:16.933Z,38.73
2022-09-15T06:43:44.442Z,47.63
2022-09-15T06:46:16.980Z,39.37
2022-09-15T06:48:48.012Z,49.27
2022-09-15T06:51:17.041Z,43.60
2022-09-15T06:53:44.066Z,40.67
2022-09-15T06:56:13.025Z,45.10
2022-09-15T06:58:40.855Z,47.40
2022-09-15T07:01:10.231Z,40.93
2022-09-15T07:03:38.553Z,50.47
2022-09-15T07:06:07.117Z,40.90
2022-09-15T07:08:34.059Z,37.40
2022-09-15T07:11:00.959Z,40.93
2022-09-15T07:13:27.451Z,38.87
2022-09-15T07:15:57.018Z,44.60
2022-09-15T07:18:24.728Z,39.00
2022-09-15T07:20:51.789Z,35.30
2022-09-15T07:23:18.976Z,38.23
2022-09-15T07:25:45.626Z,41.20
2022-09-15T07:28:12.642Z,43.83
2022-09-15T07:30:39.451Z,41.27
2022-09-15T07:33:11.512Z,47.57
2022-09-15T07:35:42.807Z,48.10
2022-09-15T07:38:09.550Z,39.00
2022-09-15T07:40:36.594Z,39.03
2022-09-15T07:43:03.073Z,45.33
2022-09-15T07:45:29.559Z,41.40
2022-09-15T07:47:56.057Z,51.97
2022-09-15T07:50:22.614Z,41.47
2022-09-15T07:52:49.155Z,39.57
2022-09-15T07:55:15.900Z,39.00
2022-09-15T07:57:42.319Z,45.80
2022-09-15T08:00:09.343Z,45.87
2022-09-15T08:02:36.269Z,38.80
2022-09-15T08:05:02.799Z,45.87
2022-09-15T08:07:29.280Z,48.30
2022-09-15T08:09:55.751Z,64.47
2022-09-15T08:12:22.213Z,46.67
2022-09-15T08:14:48.655Z,50.20
2022-09-15T08:17:15.228Z,47.93
2022-09-15T08:19:41.760Z,44.33
2022-09-15T08:22:08.205Z,39.97
2022-09-15T08:24:34.827Z,39.93
2022-09-15T08:27:01.236Z,48.50
2022-09-15T08:29:28.367Z,42.23
2022-09-15T08:31:54.819Z,43.50
2022-09-15T08:34:21.584Z,48.63
2022-09-15T08:36:48.005Z,51.43
2022-09-15T08:39:14.480Z,45.23
2022-09-15T08:41:46.656Z,50.97
2022-09-15T08:44:34.965Z,42.93
2022-09-15T08:47:05.569Z,46.60
2022-09-15T08:49:51.531Z,48.03
2022-09-15T08:52:26.667Z,38.47
2022-09-15T08:54:57.307Z,34.33
2022-09-15T08:57:25.981Z,45.50
2022-09-15T08:59:54.746Z,44.57
2022-09-15T09:02:35.014Z,41.20
2022-09-15T09:05:30.072Z,39.53
2022-09-15T09:08:14.064Z,37.73
2022-09-15T09:10:58.892Z,46.10
2022-09-15T09:13:35.375Z,31.57
2022-09-15T09:16:30.142Z,43.97
2022-09-15T09:19:18.427Z,27.80
2022-09-15T09:21:51.708Z,34.97
2022-09-15T09:24:45.677Z,37.50
2022-09-15T09:27:14.943Z,34.97
2022-09-15T09:29:50.007Z,25.80
2022-09-15T09:32:23.766Z,25.47
2022-09-15T09:35:13.235Z,29.40
2022-09-15T09:37:39.732Z,32.57
2022-09-15T09:40:06.870Z,23.13
2022-09-15T09:42:37.145Z,30.10
2022-09-15T09:45:05.884Z,23.50
2022-09-15T09:47:34.980Z,24.20
2022-09-15T09:50:02.168Z,25.33
2022-09-15T09:52:36.794Z,19.13
2022-09-15T09:55:18.390Z,15.23
2022-09-15T09:57:44.857Z,19.20
2022-09-15T10:00:31.357Z,17.53
2022-09-15T10:02:58.227Z,19.50
2022-09-15T10:05:24.856Z,23.77
2022-09-15T10:07:51.372Z,26.57
2022-09-15T10:10:23.923Z,26.17
2022-09-15T10:12:55.469Z,19.70
2022-09-15T10:15:26.056Z,16.57
2022-09-15T10:17:55.174Z,22.43
2022-09-15T10:20:32.686Z,19.13
2022-09-15T10:23:29.758Z,21.27
2022-09-15T10:26:17.712Z,21.03
2022-09-15T10:28:45.898Z,12.87
2022-09-15T10:31:25.459Z,17.10
2022-09-15T10:33:52.635Z,11.20
2022-09-15T10:36:23.654Z,11.80
2022-09-15T10:39:01.217Z,13.63
2022-09-15T10:41:30.184Z,11.83
2022-09-15T10:44:21.271Z,15.07
2022-09-15T10:47:09.120Z,13.97
2022-09-15T10:49:55.063Z,11.70
2022-09-15T10:52:21.500Z,12.23
2022-09-15T10:54:57.120Z,17.73
2022-09-15T10:57:47.451Z,19.33
2022-09-15T11:00:25.610Z,17.13
2022-09-15T11:03:11.637Z,14.50
2022-09-15T11:05:59.196Z,16.63
2022-09-15T11:08:42.659Z,12.53
2022-09-15T11:11:30.935Z,13.13
2022-09-15T11:14:23.131Z,13.00
2022-09-15T11:16:59.896Z,11.87
2022-09-15T11:20:05.649Z,14.23
2022-09-15T11:22:46.070Z,17.20
2022-09-15T11:25:20.366Z,12.83
2022-09-15T11:28:06.623Z,12.20
2022-09-15T11:30:57.132Z,13.60
2022-09-15T11:34:02.712Z,12.13
2022-09-15T11:36:58.419Z,16.83
2022-09-15T11:39:31.033Z,13.73
2022-09-15T11:42:32.028Z,13.17
2022-09-15T11:45:00.784Z,20.90
2022-09-15T11:47:59.708Z,12.93
2022-09-15T11:50:35.194Z,20.70
2022-09-15T11:53:01.571Z,13.17
2022-09-15T11:56:10.105Z,12.97
2022-09-15T11:58:44.575Z,12.23
2022-09-15T12:01:10.937Z,10.60
2022-09-15T12:03:47.028Z,11.67
2022-09-15T12:06:45.354Z,13.57
2022-09-15T12:09:15.843Z,11.60
2022-09-15T12:11:49.578Z,11.40
2022-09-15T12:14:22.746Z,11.00
2022-09-15T12:16:49.874Z,12.23
2022-09-15T12:19:33.377Z,13.00
2022-09-15T12:22:17.818Z,10.60
2022-09-15T12:24:52.970Z,18.67
2022-09-15T12:27:20.810Z,12.07
2022-09-15T12:29:56.217Z,13.20
2022-09-15T12:32:24.704Z,15.70
2022-09-15T12:34:58.916Z,10.30
2022-09-15T12:37:29.964Z,11.07
2022-09-15T12:39:56.689Z,13.70
2022-09-15T12:42:31.372Z,12.27
2022-09-15T12:45:19.495Z,15.23
2022-09-15T12:47:55.027Z,12.77
2022-09-15T12:50:31.560Z,11.87
2022-09-15T12:53:14.303Z,12.07
2022-09-15T12:56:00.931Z,10.40
2022-09-15T12:58:47.300Z,14.90
2022-09-15T13:01:23.099Z,13.63
2022-09-15T13:03:49.617Z,14.87
2022-09-15T13:06:22.990Z,23.67
2022-09-15T13:08:51.010Z,8.93
2022-09-15T13:11:23.384Z,12.63
2022-09-15T13:14:08.149Z,12.93
2022-09-15T13:16:46.666Z,13.30
2022-09-15T13:19:25.294Z,10.70
2022-09-15T13:22:11.965Z,19.07
2022-09-15T13:25:01.421Z,12.83
2022-09-15T13:27:36.308Z,15.00
2022-09-15T13:30:24.252Z,14.37
2022-09-15T13:33:01.613Z,11.80
2022-09-15T13:35:55.376Z,18.10
2022-09-15T13:38:43.883Z,12.23
2022-09-15T13:41:48.524Z,21.80
2022-09-15T13:44:33.684Z,18.73
2022-09-15T13:47:43.179Z,13.07
2022-09-15T13:50:33.794Z,13.70
2022-09-15T13:53:15.031Z,15.07
2022-09-15T13:55:43.235Z,17.60
2022-09-15T14:01:07.543Z,21.47
2022-09-15T14:03:36.935Z,18.03
2022-09-15T14:06:12.073Z,17.00
2022-09-15T14:08:40.645Z,15.73
2022-09-15T14:11:12.151Z,14.87
2022-09-15T14:13:43.545Z,16.27
2022-09-15T14:16:27.851Z,14.50
2022-09-15T14:18:57.686Z,18.13
2022-09-15T14:21:27.056Z,14.70
2022-09-15T14:23:56.028Z,9.60
2022-09-15T14:26:26.095Z,13.93
2022-09-15T14:29:02.036Z,11.73
2022-09-15T14:31:33.287Z,22.47
2022-09-15T14:34:01.584Z,13.60
2022-09-15T14:36:33.008Z,11.63
2022-09-15T14:39:20.596Z,12.27
2022-09-15T14:41:47.884Z,14.33
2022-09-15T14:47:13.230Z,15.20
2022-09-15T14:49:40.071Z,16.33
2022-09-15T14:52:21.990Z,14.00
2022-09-15T14:54:50.040Z,16.13
2022-09-15T14:57:20.452Z,13.70
2022-09-15T14:59:55.338Z,13.67
2022-09-15T15:02:33.420Z,17.97
2022-09-15T15:05:19.338Z,10.70
2022-09-15T15:07:46.266Z,15.30
2022-09-15T15:10:32.179Z,12.37
2022-09-15T15:13:04.852Z,13.37
2022-09-15T15:15:32.571Z,12.20
2022-09-15T15:17:59.234Z,11.03
2022-09-15T15:20:28.398Z,14.93
2022-09-15T15:23:22.275Z,20.43
2022-09-15T15:25:48.967Z,12.63
2022-09-15T15:28:35.954Z,12.37
2022-09-15T15:31:15.371Z,13.53
2022-09-15T15:34:06.268Z,14.63
2022-09-15T15:36:35.634Z,11.40
2022-09-15T15:39:05.672Z,9.63
2022-09-15T15:41:40.685Z,10.77
2022-09-15T15:44:28.313Z,8.67
2022-09-15T15:46:56.178Z,9.23
2022-09-15T15:49:29.344Z,10.23
2022-09-15T15:51:57.667Z,10.90
2022-09-15T15:54:25.132Z,9.13
2022-09-15T15:56:53.039Z,11.90
2022-09-15T15:59:20.269Z,10.60
2022-09-15T16:01:51.003Z,11.97
2022-09-15T16:04:17.467Z,13.73
2022-09-15T16:06:45.057Z,10.47
2022-09-15T16:09:14.672Z,10.23
2022-09-15T16:11:42.900Z,11.23
2022-09-15T16:14:13.374Z,10.57
2022-09-15T16:16:39.951Z,12.43
2022-09-15T16:19:07.710Z,9.20
2022-09-15T16:21:39.865Z,10.97
2022-09-15T16:24:12.415Z,16.33
2022-09-15T16:26:39.516Z,9.47
2022-09-15T16:29:06.254Z,11.77
2022-09-15T16:31:33.683Z,12.73
2022-09-15T16:34:00.448Z,10.57
2022-09-15T16:36:27.175Z,10.20
2022-09-15T16:38:53.825Z,13.47
2022-09-15T16:41:25.773Z,11.73
2022-09-15T16:43:55.916Z,11.37
2022-09-15T16:46:22.577Z,15.27
2022-09-15T16:48:49.371Z,11.67
2022-09-15T16:51:34.240Z,14.07
2022-09-15T16:54:00.716Z,15.40
2022-09-15T16:56:27.756Z,11.73
2022-09-15T16:58:59.474Z,14.00
2022-09-15T17:01:26.560Z,15.00
2022-09-15T17:03:53.019Z,13.83
2022-09-15T17:06:19.536Z,12.90
2022-09-15T17:08:46.048Z,14.00
2022-09-15T17:11:16.686Z,13.27
2022-09-15T17:13:44.584Z,15.93
2022-09-15T17:16:13.465Z,12.27
2022-09-15T17:18:39.958Z,9.80
2022-09-15T17:21:06.428Z,13.80
2022-09-15T17:23:38.915Z,14.43
2022-09-15T17:26:30.585Z,14.60
2022-09-15T17:28:58.233Z,13.87
2022-09-15T17:31:25.082Z,12.40
2022-09-15T17:33:51.858Z,13.00
2022-09-15T17:36:18.926Z,10.50
2022-09-15T17:38:45.989Z,16.43
2022-09-15T17:41:17.579Z,11.00
2022-09-15T17:43:44.108Z,24.27
2022-09-15T17:46:10.641Z,9.00
2022-09-15T17:48:38.827Z,13.50
2022-09-15T17:51:12.437Z,10.77
2022-09-15T17:53:38.832Z,11.93
2022-09-15T17:56:05.352Z,12.33
2022-09-15T17:58:31.949Z,11.10
2022-09-15T18:00:59.130Z,10.40
2022-09-15T18:03:34.992Z,14.60
2022-09-15T18:06:05.350Z,8.60
2022-09-15T18:08:38.709Z,11.40
2022-09-15T18:11:06.750Z,13.40
2022-09-15T18:13:38.133Z,13.87
2022-09-15T18:16:12.691Z,12.43
2022-09-15T18:18:40.611Z,9.93
2022-09-15T18:21:09.757Z,11.30
2022-09-15T18:23:44.838Z,17.23
2022-09-15T18:26:11.283Z,12.83
2022-09-15T18:28:37.773Z,21.03
2022-09-15T18:31:04.286Z,11.90
2022-09-15T18:33:31.099Z,10.97
2022-09-15T18:36:01.458Z,11.17
2022-09-15T18:38:27.859Z,14.33
2022-09-15T18:40:56.806Z,12.80
2022-09-15T18:43:26.330Z,10.17
2022-09-15T18:45:57.748Z,10.17
2022-09-15T18:48:24.196Z,13.13
2022-09-15T18:50:50.813Z,12.97
2022-09-15T18:53:17.365Z,12.17
2022-09-15T18:55:43.884Z,13.00
2022-09-15T18:58:11.937Z,13.07
2022-09-15T19:00:39.044Z,10.70
2022-09-15T19:03:06.857Z,13.90
2022-09-15T19:05:33.667Z,11.57
2022-09-15T19:08:01.613Z,14.57
2022-09-15T19:10:28.144Z,9.87
2022-09-15T19:12:55.083Z,11.50
2022-09-15T19:15:24.628Z,20.20
2022-09-15T19:17:51.424Z,12.00
2022-09-15T19:20:18.080Z,13.13
2022-09-15T19:22:44.576Z,11.60
2022-09-15T19:25:11.669Z,10.87
2022-09-15T19:27:39.522Z,12.70
2022-09-15T19:30:09.795Z,11.73
2022-09-15T19:32:37.166Z,11.77
2022-09-15T19:35:04.207Z,12.37
2022-09-15T19:37:30.688Z,8.23
2022-09-15T19:39:57.166Z,10.80
2022-09-15T19:42:23.651Z,16.13
2022-09-15T19:44:50.434Z,12.93
2022-09-15T19:47:16.952Z,12.23
2022-09-15T19:49:43.361Z,13.07
2022-09-15T19:52:09.832Z,14.97
2022-09-15T19:54:36.691Z,12.07
2022-09-15T19:57:03.782Z,12.33
2022-09-15T19:59:31.850Z,11.20
2022-09-15T20:01:59.670Z,10.17
2022-09-15T20:04:26.811Z,11.00
2022-09-15T20:06:53.267Z,16.53
2022-09-15T20:09:19.701Z,9.73
2022-09-15T20:11:46.331Z,13.27
2022-09-15T20:14:13.587Z,12.30
2022-09-15T20:16:40.411Z,14.00
2022-09-15T20:19:06.996Z,14.43
2022-09-15T20:21:52.016Z,11.07
2022-09-15T20:24:20.180Z,10.10
2022-09-15T20:26:46.710Z,11.43
2022-09-15T20:29:13.535Z,14.90
2022-09-15T20:31:40.580Z,15.43
2022-09-15T20:34:07.047Z,12.70
2022-09-15T20:36:36.421Z,9.30
2022-09-15T20:39:05.843Z,10.50
2022-09-15T20:41:32.450Z,13.23
2022-09-15T20:44:00.130Z,12.30
2022-09-15T20:46:29.222Z,14.47
2022-09-15T20:48:55.684Z,17.00
2022-09-15T20:51:25.505Z,10.77
2022-09-15T20:53:54.228Z,14.50
2022-09-15T20:56:25.415Z,11.03
2022-09-15T20:58:53.861Z,9.97
2022-09-15T21:01:23.862Z,12.40
2022-09-15T21:03:50.812Z,9.07
2022-09-15T21:06:20.109Z,10.17
2022-09-15T21:08:48.083Z,15.93
2022-09-15T21:11:15.880Z,17.23
2022-09-15T21:13:43.436Z,10.60
2022-09-15T21:16:16.036Z,13.93
2022-09-15T21:18:43.723Z,10.87
2022-09-15T21:21:13.539Z,10.00
2022-09-15T21:23:45.424Z,12.83
2022-09-15T21:26:14.754Z,13.10
2022-09-15T21:28:43.434Z,12.30
2022-09-15T21:31:15.422Z,11.53
2022-09-15T21:33:43.300Z,9.80
2022-09-15T21:36:11.436Z,10.60
2022-09-15T21:38:40.396Z,12.20
2022-09-15T21:41:09.231Z,10.00
2022-09-15T21:43:39.447Z,12.17
2022-09-15T21:46:08.609Z,16.93
2022-09-15T21:48:35.829Z,11.50
2022-09-15T21:51:04.623Z,11.47
2022-09-15T21:53:32.142Z,13.90
2022-09-15T21:56:04.234Z,12.53
2022-09-15T21:58:41.750Z,10.20
2022-09-15T22:01:09.468Z,10.80
2022-09-15T22:03:37.556Z,10.97
2022-09-15T22:06:04.066Z,12.30
2022-09-15T22:08:31.034Z,11.70
2022-09-15T22:11:01.183Z,14.50
2022-09-15T22:13:28.191Z,9.40
2022-09-15T22:16:06.254Z,10.53
2022-09-15T22:18:35.551Z,16.53
2022-09-15T22:21:15.069Z,11.00
2022-09-15T22:23:42.802Z,13.10
2022-09-15T22:26:15.676Z,16.10
2022-09-15T22:28:42.593Z,10.10
2022-09-15T22:31:10.875Z,10.40
2022-09-15T22:33:40.834Z,10.00
2022-09-15T22:36:11.872Z,14.80
2022-09-15T22:38:38.713Z,14.03
2022-09-15T22:41:08.964Z,13.03
2022-09-15T22:43:36.732Z,11.63
2022-09-15T22:46:04.041Z,10.20
2022-09-15T22:48:30.567Z,11.80
2022-09-15T22:50:57.165Z,10.30
2022-09-15T22:53:23.907Z,13.83
2022-09-15T22:55:50.815Z,17.23
2022-09-15T22:58:17.297Z,13.10
2022-09-15T23:00:43.798Z,12.10
2022-09-15T23:03:11.393Z,12.30
2022-09-15T23:05:38.206Z,12.33
2022-09-15T23:08:05.492Z,10.50
2022-09-15T23:10:32.807Z,15.87
2022-09-15T23:13:01.752Z,11.63
2022-09-15T23:15:29.063Z,12.63
2022-09-15T23:17:55.479Z,11.77
2022-09-15T23:20:22.746Z,10.53
2022-09-15T23:22:49.227Z,10.00
2022-09-15T23:25:17.622Z,15.10
2022-09-15T23:27:44.341Z,12.00
2022-09-15T23:30:12.348Z,11.97
2022-09-15T23:32:39.932Z,11.90
2022-09-15T23:35:07.027Z,14.50
2022-09-15T23:37:33.538Z,13.30
2022-09-15T23:40:00.718Z,12.00
2022-09-15T23:42:27.318Z,16.80
2022-09-15T23:44:53.718Z,13.97
2022-09-15T23:47:20.119Z,12.37
2022-09-15T23:49:46.506Z,15.57
2022-09-15T23:52:12.947Z,10.23
2022-09-15T23:54:39.361Z,13.43
2022-09-15T23:57:05.845Z,13.63
2022-09-15T23:59:32.277Z,12.17
